createdAt,value
2022-11-28T00:08:35.766Z,156.55
2022-11-28T00:23:35.887Z,164.46
2022-11-28T00:38:35.727Z,157.22
2022-11-28T00:53:35.736Z,161.30
2022-11-28T01:08:35.901Z,152.53
2022-11-28T01:23:35.939Z,156.00
2022-11-28T01:38:36.009Z,150.04
2022-11-28T01:53:36.007Z,158.06
2022-11-28T02:08:36.061Z,160.87
2022-11-28T02:23:36.081Z,164.09
2022-11-28T02:38:36.058Z,178.07
2022-11-28T02:53:36.045Z,182.03
2022-11-28T03:08:36.090Z,177.51
2022-11-28T03:23:36.121Z,165.24
2022-11-28T03:38:36.068Z,177.41
2022-11-28T03:53:36.172Z,192.71
2022-11-28T04:08:36.235Z,165.86
2022-11-28T04:23:36.190Z,176.45
2022-11-28T04:38:36.293Z,173.01
2022-11-28T04:53:36.350Z,174.52
2022-11-28T05:08:36.308Z,167.61
2022-11-28T05:23:36.274Z,171.41
2022-11-28T05:38:36.435Z,170.64
2022-11-28T05:53:36.461Z,162.78
2022-11-28T06:08:36.485Z,161.57
2022-11-28T06:23:36.489Z,174.85
2022-11-28T06:38:36.679Z,153.73
2022-11-28T06:53:36.533Z,159.60
2022-11-28T07:08:36.626Z,171.22
2022-11-28T07:23:36.616Z,180.10
2022-11-28T07:38:36.696Z,168.94
2022-11-28T07:53:36.684Z,187.76
2022-11-28T08:08:36.792Z,187.85
2022-11-28T08:23:36.810Z,178.55
2022-11-28T08:38:36.823Z,178.79
2022-11-28T08:53:36.889Z,187.27
2022-11-28T09:08:37.000Z,183.75
2022-11-28T09:23:36.893Z,174.92
2022-11-28T09:38:36.827Z,179.15
2022-11-28T09:53:36.833Z,182.25
2022-11-28T10:08:36.861Z,188.01
2022-11-28T10:23:37.029Z,193.00
2022-11-28T10:38:37.014Z,193.47
2022-11-28T10:53:36.950Z,199.04
2022-11-28T11:08:36.958Z,188.29
2022-11-28T11:23:38.517Z,134.15
2022-11-28T11:38:38.164Z,183.37
2022-11-28T11:53:37.213Z,185.57
2022-11-28T12:08:37.200Z,181.02
2022-11-28T12:23:37.190Z,193.09
2022-11-28T12:38:37.365Z,182.55
2022-11-28T12:53:37.255Z,196.12
2022-11-28T13:08:37.289Z,184.78
2022-11-28T13:23:37.424Z,186.92
2022-11-28T13:38:41.657Z,189.00
2022-11-28T13:53:37.366Z,186.21
2022-11-28T14:08:37.456Z,184.74
2022-11-28T14:23:37.449Z,186.03
2022-11-28T14:38:37.550Z,186.04
2022-11-28T14:53:37.493Z,180.03
2022-11-28T15:08:37.586Z,162.80
2022-11-28T15:23:37.571Z,179.54
2022-11-28T15:38:37.651Z,175.55
2022-11-28T15:53:37.813Z,157.33
2022-11-28T16:08:37.810Z,173.53
2022-11-28T16:23:37.732Z,177.92
2022-11-28T16:38:38.004Z,171.79
2022-11-28T16:53:37.996Z,170.08
2022-11-28T17:08:37.872Z,177.51
2022-11-28T17:23:37.846Z,179.00
2022-11-28T17:38:37.873Z,175.35
2022-11-28T17:53:37.978Z,188.04
2022-11-28T18:08:38.095Z,173.71
2022-11-28T18:23:37.968Z,201.58
2022-11-28T18:38:38.021Z,198.16
2022-11-28T18:53:38.119Z,203.71
2022-11-28T19:08:38.052Z,208.26
2022-11-28T19:23:38.137Z,194.31
2022-11-28T19:38:38.114Z,218.02
2022-11-28T19:53:38.306Z,222.46
2022-11-28T20:08:38.247Z,217.20
2022-11-28T20:23:38.263Z,221.80
2022-11-28T20:38:38.259Z,218.74
2022-11-28T20:53:38.317Z,227.14
2022-11-28T21:08:38.387Z,226.91
2022-11-28T21:23:38.388Z,223.65
2022-11-28T21:38:38.286Z,224.99
2022-11-28T21:53:38.691Z,225.28
2022-11-28T22:08:38.452Z,238.35
2022-11-28T22:23:38.460Z,245.46
2022-11-28T22:38:38.453Z,222.83
2022-11-28T22:53:38.578Z,222.86
2022-11-28T23:08:38.604Z,223.05
2022-11-28T23:23:38.523Z,232.59
2022-11-28T23:38:38.499Z,242.44
2022-11-28T23:53:38.703Z,226.84
